sensor_id;sensor_type;location;lat;lon;timestamp;pressure;altitude;pressure_sealevel;temperature;humidity
31346;BME280;21711;49.708;18.568;2023-02-28T00:01:27;98378.63;;;-0.35;89.52
31346;BME280;21711;49.708;18.568;2023-02-28T00:03:55;98382.72;;;-0.41;90.95
31346;BME280;21711;49.708;18.568;2023-02-28T00:06:23;98384.97;;;-0.37;89.15
31346;BME280;21711;49.708;18.568;2023-02-28T00:08:51;98394.22;;;-0.35;90.31
31346;BME280;21711;49.708;18.568;2023-02-28T00:11:18;98386.19;;;-0.48;89.57
31346;BME280;21711;49.708;18.568;2023-02-28T00:13:46;98385.75;;;-0.37;90.44
31346;BME280;21711;49.708;18.568;2023-02-28T00:16:21;98386.97;;;-0.48;88.93
31346;BME280;21711;49.708;18.568;2023-02-28T00:18:49;98389.66;;;-0.56;89.48
31346;BME280;21711;49.708;18.568;2023-02-28T00:21:17;98389.47;;;-0.55;90.17
31346;BME280;21711;49.708;18.568;2023-02-28T00:23:45;98391.41;;;-0.57;89.69
31346;BME280;21711;49.708;18.568;2023-02-28T00:26:12;98388.88;;;-0.65;90.85
31346;BME280;21711;49.708;18.568;2023-02-28T00:28:44;98392.25;;;-0.56;91.60
31346;BME280;21711;49.708;18.568;2023-02-28T00:31:11;98387.97;;;-0.49;91.18
31346;BME280;21711;49.708;18.568;2023-02-28T00:33:38;98384.03;;;-0.68;90.77
31346;BME280;21711;49.708;18.568;2023-02-28T00:36:09;98390.16;;;-0.61;91.88
31346;BME280;21711;49.708;18.568;2023-02-28T00:38:38;98384.44;;;-0.56;90.23
31346;BME280;21711;49.708;18.568;2023-02-28T00:41:06;98382.19;;;-0.59;92.79
31346;BME280;21711;49.708;18.568;2023-02-28T00:43:36;98382.31;;;-0.52;92.83
31346;BME280;21711;49.708;18.568;2023-02-28T00:46:05;98382.88;;;-0.42;92.37
31346;BME280;21711;49.708;18.568;2023-02-28T00:48:32;98383.81;;;-0.35;91.63
31346;BME280;21711;49.708;18.568;2023-02-28T00:51:00;98386.41;;;-0.35;90.27
31346;BME280;21711;49.708;18.568;2023-02-28T00:53:28;98381.66;;;-0.31;89.47
31346;BME280;21711;49.708;18.568;2023-02-28T00:55:57;98386.91;;;-0.40;90.59
31346;BME280;21711;49.708;18.568;2023-02-28T00:58:25;98379.41;;;-0.58;89.71
31346;BME280;21711;49.708;18.568;2023-02-28T01:00:53;98379.53;;;-0.51;91.65
31346;BME280;21711;49.708;18.568;2023-02-28T01:03:22;98379.28;;;-0.41;91.01
31346;BME280;21711;49.708;18.568;2023-02-28T01:05:50;98379.66;;;-0.44;92.14
31346;BME280;21711;49.708;18.568;2023-02-28T01:08:17;98381.50;;;-0.30;90.11
31346;BME280;21711;49.708;18.568;2023-02-28T01:10:45;98381.28;;;-0.43;91.03
31346;BME280;21711;49.708;18.568;2023-02-28T01:13:13;98377.09;;;-0.29;91.60
31346;BME280;21711;49.708;18.568;2023-02-28T01:15:45;98379.06;;;-0.31;89.50
31346;BME280;21711;49.708;18.568;2023-02-28T01:18:15;98376.97;;;-0.36;89.88
31346;BME280;21711;49.708;18.568;2023-02-28T01:20:42;98372.16;;;-0.39;89.58
31346;BME280;21711;49.708;18.568;2023-02-28T01:23:11;98373.47;;;-0.43;89.14
31346;BME280;21711;49.708;18.568;2023-02-28T01:25:41;98372.59;;;-0.35;90.86
31346;BME280;21711;49.708;18.568;2023-02-28T01:28:08;98376.19;;;-0.36;91.67
31346;BME280;21711;49.708;18.568;2023-02-28T01:30:35;98373.06;;;-0.32;90.46
31346;BME280;21711;49.708;18.568;2023-02-28T01:33:02;98371.22;;;-0.46;90.24
31346;BME280;21711;49.708;18.568;2023-02-28T01:35:35;98375.25;;;-0.44;90.51
31346;BME280;21711;49.708;18.568;2023-02-28T01:38:03;98377.06;;;-0.44;91.14
31346;BME280;21711;49.708;18.568;2023-02-28T01:40:47;98376.34;;;-0.38;91.42
31346;BME280;21711;49.708;18.568;2023-02-28T01:43:31;98367.59;;;-0.60;89.11
31346;BME280;21711;49.708;18.568;2023-02-28T01:45:59;98362.59;;;-0.70;89.40
31346;BME280;21711;49.708;18.568;2023-02-28T01:48:36;98358.34;;;-0.63;90.16
31346;BME280;21711;49.708;18.568;2023-02-28T01:51:13;98366.88;;;-0.54;89.76
31346;BME280;21711;49.708;18.568;2023-02-28T01:53:48;98362.50;;;-0.54;90.68
31346;BME280;21711;49.708;18.568;2023-02-28T01:56:20;98350.88;;;-0.66;90.11
31346;BME280;21711;49.708;18.568;2023-02-28T01:58:53;98354.22;;;-0.57;90.70
31346;BME280;21711;49.708;18.568;2023-02-28T02:01:25;98350.06;;;-0.43;88.66
31346;BME280;21711;49.708;18.568;2023-02-28T02:03:58;98347.94;;;-0.63;89.34
31346;BME280;21711;49.708;18.568;2023-02-28T02:06:41;98340.31;;;-0.64;88.43
31346;BME280;21711;49.708;18.568;2023-02-28T02:09:10;98345.72;;;-0.74;89.48
31346;BME280;21711;49.708;18.568;2023-02-28T02:11:41;98333.91;;;-0.77;89.34
31346;BME280;21711;49.708;18.568;2023-02-28T02:15:06;98336.47;;;-1.00;89.98
31346;BME280;21711;49.708;18.568;2023-02-28T02:17:41;98340.00;;;-0.93;90.98
31346;BME280;21711;49.708;18.568;2023-02-28T02:20:46;98337.50;;;-1.10;92.10
31346;BME280;21711;49.708;18.568;2023-02-28T02:35:54;98341.69;;;-1.40;92.87
31346;BME280;21711;49.708;18.568;2023-02-28T02:38:36;98348.84;;;-1.42;92.91
31346;BME280;21711;49.708;18.568;2023-02-28T02:43:57;98346.00;;;-1.64;93.64
31346;BME280;21711;49.708;18.568;2023-02-28T02:46:38;98346.97;;;-1.65;94.14
31346;BME280;21711;49.708;18.568;2023-02-28T02:49:21;98341.63;;;-1.64;93.83
31346;BME280;21711;49.708;18.568;2023-02-28T02:51:52;98347.78;;;-1.65;93.27
31346;BME280;21711;49.708;18.568;2023-02-28T02:54:25;98351.34;;;-1.74;92.81
31346;BME280;21711;49.708;18.568;2023-02-28T02:57:03;98347.47;;;-1.78;93.51
31346;BME280;21711;49.708;18.568;2023-02-28T02:59:32;98354.63;;;-1.80;92.11
31346;BME280;21711;49.708;18.568;2023-02-28T03:02:04;98359.34;;;-1.92;93.51
31346;BME280;21711;49.708;18.568;2023-02-28T03:04:40;98355.47;;;-1.96;92.28
31346;BME280;21711;49.708;18.568;2023-02-28T03:07:09;98360.81;;;-1.90;92.32
31346;BME280;21711;49.708;18.568;2023-02-28T03:09:37;98364.84;;;-1.95;91.80
31346;BME280;21711;49.708;18.568;2023-02-28T03:12:11;98359.03;;;-2.06;92.83
31346;BME280;21711;49.708;18.568;2023-02-28T03:31:00;98354.81;;;-2.23;95.10
31346;BME280;21711;49.708;18.568;2023-02-28T03:33:44;98361.00;;;-2.25;94.89
31346;BME280;21711;49.708;18.568;2023-02-28T03:36:33;98363.09;;;-2.28;94.00
31346;BME280;21711;49.708;18.568;2023-02-28T03:39:45;98363.75;;;-2.34;95.40
31346;BME280;21711;49.708;18.568;2023-02-28T03:42:43;98365.06;;;-2.30;94.45
31346;BME280;21711;49.708;18.568;2023-02-28T03:45:28;98372.47;;;-2.35;95.25
31346;BME280;21711;49.708;18.568;2023-02-28T03:48:17;98377.03;;;-2.38;95.05
31346;BME280;21711;49.708;18.568;2023-02-28T03:50:49;98370.25;;;-2.30;95.97
31346;BME280;21711;49.708;18.568;2023-02-28T03:53:44;98370.69;;;-2.43;96.60
31346;BME280;21711;49.708;18.568;2023-02-28T03:56:24;98364.72;;;-2.52;98.22
31346;BME280;21711;49.708;18.568;2023-02-28T04:01:39;98371.00;;;-2.63;99.37
31346;BME280;21711;49.708;18.568;2023-02-28T04:04:10;98377.97;;;-2.55;99.16
31346;BME280;21711;49.708;18.568;2023-02-28T04:06:38;98378.13;;;-2.57;99.32
31346;BME280;21711;49.708;18.568;2023-02-28T04:09:07;98391.44;;;-2.52;99.31
31346;BME280;21711;49.708;18.568;2023-02-28T04:11:45;98381.22;;;-2.61;98.18
31346;BME280;21711;49.708;18.568;2023-02-28T04:14:12;98387.84;;;-2.59;98.93
31346;BME280;21711;49.708;18.568;2023-02-28T04:16:41;98383.81;;;-2.61;99.13
31346;BME280;21711;49.708;18.568;2023-02-28T04:19:11;98386.88;;;-2.58;100.00
31346;BME280;21711;49.708;18.568;2023-02-28T04:21:45;98385.41;;;-2.60;99.09
31346;BME280;21711;49.708;18.568;2023-02-28T04:24:25;98388.84;;;-2.60;100.00
31346;BME280;21711;49.708;18.568;2023-02-28T04:26:56;98386.38;;;-2.70;97.69
31346;BME280;21711;49.708;18.568;2023-02-28T04:29:32;98387.97;;;-2.69;98.71
31346;BME280;21711;49.708;18.568;2023-02-28T04:32:00;98397.72;;;-2.62;98.40
31346;BME280;21711;49.708;18.568;2023-02-28T04:34:31;98389.63;;;-2.59;98.32
31346;BME280;21711;49.708;18.568;2023-02-28T04:36:59;98387.84;;;-2.59;97.92
31346;BME280;21711;49.708;18.568;2023-02-28T04:39:43;98390.91;;;-2.72;95.98
31346;BME280;21711;49.708;18.568;2023-02-28T04:42:11;98385.41;;;-2.69;97.13
31346;BME280;21711;49.708;18.568;2023-02-28T04:44:39;98385.72;;;-2.72;97.48
31346;BME280;21711;49.708;18.568;2023-02-28T04:47:06;98387.13;;;-2.86;95.46
31346;BME280;21711;49.708;18.568;2023-02-28T04:49:33;98380.84;;;-2.83;96.94
31346;BME280;21711;49.708;18.568;2023-02-28T04:52:01;98388.28;;;-2.80;95.59
31346;BME280;21711;49.708;18.568;2023-02-28T04:54:28;98387.31;;;-2.87;94.22
31346;BME280;21711;49.708;18.568;2023-02-28T04:56:56;98388.44;;;-2.82;92.96
31346;BME280;21711;49.708;18.568;2023-02-28T04:59:24;98387.81;;;-2.84;95.11
31346;BME280;21711;49.708;18.568;2023-02-28T05:01:51;98392.00;;;-2.83;93.59
31346;BME280;21711;49.708;18.568;2023-02-28T05:04:18;98389.59;;;-2.76;92.38
31346;BME280;21711;49.708;18.568;2023-02-28T05:06:46;98384.41;;;-2.84;93.32
31346;BME280;21711;49.708;18.568;2023-02-28T05:09:13;98384.06;;;-2.89;94.45
31346;BME280;21711;49.708;18.568;2023-02-28T05:11:41;98384.72;;;-2.87;94.09
31346;BME280;21711;49.708;18.568;2023-02-28T05:14:13;98385.84;;;-2.82;94.31
31346;BME280;21711;49.708;18.568;2023-02-28T05:16:41;98388.94;;;-2.86;94.72
31346;BME280;21711;49.708;18.568;2023-02-28T05:19:09;98384.69;;;-2.96;93.39
31346;BME280;21711;49.708;18.568;2023-02-28T05:21:40;98391.72;;;-2.80;95.69
31346;BME280;21711;49.708;18.568;2023-02-28T05:24:11;98396.19;;;-2.90;93.06
31346;BME280;21711;49.708;18.568;2023-02-28T05:26:41;98397.00;;;-2.89;95.53
31346;BME280;21711;49.708;18.568;2023-02-28T05:29:09;98401.88;;;-2.78;94.92
31346;BME280;21711;49.708;18.568;2023-02-28T05:31:37;98401.22;;;-2.88;92.90
31346;BME280;21711;49.708;18.568;2023-02-28T05:34:05;98404.94;;;-2.91;93.72
31346;BME280;21711;49.708;18.568;2023-02-28T05:36:32;98410.81;;;-2.72;93.90
31346;BME280;21711;49.708;18.568;2023-02-28T05:39:00;98412.28;;;-2.70;93.75
31346;BME280;21711;49.708;18.568;2023-02-28T05:41:27;98419.75;;;-2.58;94.70
31346;BME280;21711;49.708;18.568;2023-02-28T05:43:55;98419.56;;;-2.57;94.82
31346;BME280;21711;49.708;18.568;2023-02-28T05:46:24;98420.72;;;-2.51;92.44
31346;BME280;21711;49.708;18.568;2023-02-28T05:48:51;98427.72;;;-2.52;89.01
31346;BME280;21711;49.708;18.568;2023-02-28T05:51:18;98429.81;;;-2.47;90.07
31346;BME280;21711;49.708;18.568;2023-02-28T05:53:46;98435.13;;;-2.48;93.82
31346;BME280;21711;49.708;18.568;2023-02-28T05:56:15;98435.47;;;-2.43;94.42
31346;BME280;21711;49.708;18.568;2023-02-28T05:58:42;98442.75;;;-2.47;95.75
31346;BME280;21711;49.708;18.568;2023-02-28T06:01:23;98441.16;;;-2.31;95.12
31346;BME280;21711;49.708;18.568;2023-02-28T06:03:51;98440.72;;;-2.18;93.82
31346;BME280;21711;49.708;18.568;2023-02-28T06:06:18;98445.06;;;-2.19;92.28
31346;BME280;21711;49.708;18.568;2023-02-28T06:08:46;98449.13;;;-2.16;88.71
31346;BME280;21711;49.708;18.568;2023-02-28T06:11:13;98451.22;;;-2.12;87.51
31346;BME280;21711;49.708;18.568;2023-02-28T06:13:41;98459.00;;;-2.20;88.32
31346;BME280;21711;49.708;18.568;2023-02-28T06:16:10;98454.28;;;-2.25;91.96
31346;BME280;21711;49.708;18.568;2023-02-28T06:18:39;98454.66;;;-2.03;92.66
31346;BME280;21711;49.708;18.568;2023-02-28T06:21:06;98459.00;;;-2.03;95.30
31346;BME280;21711;49.708;18.568;2023-02-28T06:23:33;98458.53;;;-1.99;95.16
31346;BME280;21711;49.708;18.568;2023-02-28T06:26:00;98460.78;;;-1.87;93.66
31346;BME280;21711;49.708;18.568;2023-02-28T06:28:28;98457.56;;;-1.89;90.41
31346;BME280;21711;49.708;18.568;2023-02-28T06:30:56;98456.09;;;-2.00;88.78
31346;BME280;21711;49.708;18.568;2023-02-28T06:33:23;98464.69;;;-1.83;91.04
31346;BME280;21711;49.708;18.568;2023-02-28T06:35:51;98468.41;;;-1.69;91.79
31346;BME280;21711;49.708;18.568;2023-02-28T06:38:19;98468.25;;;-1.67;93.27
31346;BME280;21711;49.708;18.568;2023-02-28T06:40:57;98465.28;;;-1.39;94.12
31346;BME280;21711;49.708;18.568;2023-02-28T06:43:27;98468.88;;;-1.40;93.40
31346;BME280;21711;49.708;18.568;2023-02-28T06:45:56;98467.25;;;-1.33;94.52
31346;BME280;21711;49.708;18.568;2023-02-28T06:48:26;98469.28;;;-1.12;94.67
31346;BME280;21711;49.708;18.568;2023-02-28T06:51:04;98467.16;;;-1.00;94.87
31346;BME280;21711;49.708;18.568;2023-02-28T06:53:32;98471.22;;;-1.06;93.47
31346;BME280;21711;49.708;18.568;2023-02-28T06:56:03;98464.50;;;-0.91;94.04
31346;BME280;21711;49.708;18.568;2023-02-28T06:58:33;98469.84;;;-0.85;93.62
31346;BME280;21711;49.708;18.568;2023-02-28T07:01:01;98463.34;;;-0.89;92.26
31346;BME280;21711;49.708;18.568;2023-02-28T07:03:29;98480.59;;;-0.88;92.18
31346;BME280;21711;49.708;18.568;2023-02-28T07:06:00;98473.47;;;-1.02;91.96
31346;BME280;21711;49.708;18.568;2023-02-28T07:08:28;98478.28;;;-0.83;92.56
31346;BME280;21711;49.708;18.568;2023-02-28T07:10:56;98481.44;;;-1.04;92.85
31346;BME280;21711;49.708;18.568;2023-02-28T07:13:24;98488.63;;;-0.74;93.08
31346;BME280;21711;49.708;18.568;2023-02-28T07:16:00;98490.63;;;-0.53;91.13
31346;BME280;21711;49.708;18.568;2023-02-28T07:18:28;98485.63;;;0.01;90.16
31346;BME280;21711;49.708;18.568;2023-02-28T07:20:56;98492.94;;;0.44;88.15
31346;BME280;21711;49.708;18.568;2023-02-28T07:23:24;98496.28;;;0.83;85.67
31346;BME280;21711;49.708;18.568;2023-02-28T07:25:51;98499.19;;;1.18;84.96
31346;BME280;21711;49.708;18.568;2023-02-28T07:28:19;98494.53;;;2.09;80.42
31346;BME280;21711;49.708;18.568;2023-02-28T07:30:46;98511.72;;;2.75;76.34
31346;BME280;21711;49.708;18.568;2023-02-28T07:33:14;98509.75;;;3.13;70.89
31346;BME280;21711;49.708;18.568;2023-02-28T07:35:41;98511.06;;;3.37;71.26
31346;BME280;21711;49.708;18.568;2023-02-28T07:38:09;98517.31;;;4.05;68.04
31346;BME280;21711;49.708;18.568;2023-02-28T07:40:36;98521.13;;;5.11;62.64
31346;BME280;21711;49.708;18.568;2023-02-28T07:43:04;98525.22;;;5.46;58.59
31346;BME280;21711;49.708;18.568;2023-02-28T07:45:31;98527.44;;;5.49;56.60
31346;BME280;21711;49.708;18.568;2023-02-28T07:48:01;98516.50;;;5.98;55.34
31346;BME280;21711;49.708;18.568;2023-02-28T07:50:28;98532.81;;;7.95;50.88
31346;BME280;21711;49.708;18.568;2023-02-28T07:52:59;98529.28;;;9.69;45.59
31346;BME280;21711;49.708;18.568;2023-02-28T07:55:26;98531.91;;;10.27;44.10
31346;BME280;21711;49.708;18.568;2023-02-28T07:57:54;98531.53;;;10.06;40.90
31346;BME280;21711;49.708;18.568;2023-02-28T08:00:22;98529.94;;;10.22;41.25
31346;BME280;21711;49.708;18.568;2023-02-28T08:02:50;98534.09;;;10.82;39.77
31346;BME280;21711;49.708;18.568;2023-02-28T08:05:17;98531.84;;;11.80;37.47
31346;BME280;21711;49.708;18.568;2023-02-28T08:07:49;98521.19;;;12.02;36.42
31346;BME280;21711;49.708;18.568;2023-02-28T08:10:16;98525.53;;;12.14;36.24
31346;BME280;21711;49.708;18.568;2023-02-28T08:12:43;98523.47;;;11.66;35.08
31346;BME280;21711;49.708;18.568;2023-02-28T08:15:11;98521.22;;;12.35;35.37
31346;BME280;21711;49.708;18.568;2023-02-28T08:17:38;98529.16;;;13.16;33.13
31346;BME280;21711;49.708;18.568;2023-02-28T08:20:06;98521.31;;;12.45;31.38
31346;BME280;21711;49.708;18.568;2023-02-28T08:22:34;98523.44;;;11.88;32.92
31346;BME280;21711;49.708;18.568;2023-02-28T08:25:01;98519.16;;;12.42;34.09
31346;BME280;21711;49.708;18.568;2023-02-28T08:27:29;98519.03;;;13.08;32.57
31346;BME280;21711;49.708;18.568;2023-02-28T08:29:56;98526.03;;;14.25;30.47
31346;BME280;21711;49.708;18.568;2023-02-28T08:32:23;98532.69;;;14.12;29.28
31346;BME280;21711;49.708;18.568;2023-02-28T08:34:56;98532.91;;;13.94;29.96
31346;BME280;21711;49.708;18.568;2023-02-28T08:37:24;98537.22;;;14.48;30.58
31346;BME280;21711;49.708;18.568;2023-02-28T08:39:51;98533.28;;;13.45;31.01
31346;BME280;21711;49.708;18.568;2023-02-28T08:42:23;98543.75;;;13.77;29.33
31346;BME280;21711;49.708;18.568;2023-02-28T08:44:50;98530.44;;;12.27;31.80
31346;BME280;21711;49.708;18.568;2023-02-28T08:47:18;98527.63;;;12.77;31.64
31346;BME280;21711;49.708;18.568;2023-02-28T08:49:45;98534.94;;;12.59;30.37
31346;BME280;21711;49.708;18.568;2023-02-28T08:52:13;98539.69;;;13.49;30.72
31346;BME280;21711;49.708;18.568;2023-02-28T08:54:40;98534.53;;;14.27;30.16
31346;BME280;21711;49.708;18.568;2023-02-28T08:57:08;98526.06;;;12.81;30.61
31346;BME280;21711;49.708;18.568;2023-02-28T08:59:35;98535.22;;;13.06;30.40
31346;BME280;21711;49.708;18.568;2023-02-28T09:02:02;98526.78;;;13.14;30.96
31346;BME280;21711;49.708;18.568;2023-02-28T09:04:29;98524.63;;;13.06;29.28
31346;BME280;21711;49.708;18.568;2023-02-28T09:06:58;98521.53;;;12.82;31.26
31346;BME280;21711;49.708;18.568;2023-02-28T09:09:25;98520.44;;;13.21;30.01
31346;BME280;21711;49.708;18.568;2023-02-28T09:11:54;98528.03;;;13.60;30.71
31346;BME280;21711;49.708;18.568;2023-02-28T09:14:22;98524.16;;;14.88;29.25
31346;BME280;21711;49.708;18.568;2023-02-28T09:16:49;98532.28;;;15.22;26.98
31346;BME280;21711;49.708;18.568;2023-02-28T09:19:17;98530.81;;;14.17;28.27
31346;BME280;21711;49.708;18.568;2023-02-28T09:21:45;98535.97;;;15.93;27.65
31346;BME280;21711;49.708;18.568;2023-02-28T09:24:12;98522.53;;;13.19;29.54
31346;BME280;21711;49.708;18.568;2023-02-28T09:26:42;98537.72;;;14.18;29.72
31346;BME280;21711;49.708;18.568;2023-02-28T09:29:30;98535.28;;;15.71;27.06
31346;BME280;21711;49.708;18.568;2023-02-28T09:31:58;98536.31;;;16.26;26.93
31346;BME280;21711;49.708;18.568;2023-02-28T09:34:27;98530.22;;;15.70;26.55
31346;BME280;21711;49.708;18.568;2023-02-28T09:36:55;98534.25;;;16.77;24.92
31346;BME280;21711;49.708;18.568;2023-02-28T09:39:22;98539.41;;;17.22;24.68
31346;BME280;21711;49.708;18.568;2023-02-28T09:41:52;98535.94;;;16.38;26.44
31346;BME280;21711;49.708;18.568;2023-02-28T09:44:40;98543.22;;;17.16;26.00
31346;BME280;21711;49.708;18.568;2023-02-28T09:50:03;98548.34;;;19.55;23.40
31346;BME280;21711;49.708;18.568;2023-02-28T09:52:33;98551.38;;;20.59;22.34
31346;BME280;21711;49.708;18.568;2023-02-28T09:55:26;98543.06;;;20.79;21.01
31346;BME280;21711;49.708;18.568;2023-02-28T09:58:01;98546.22;;;18.82;22.06
31346;BME280;21711;49.708;18.568;2023-02-28T10:00:39;98542.91;;;19.83;22.23
31346;BME280;21711;49.708;18.568;2023-02-28T10:03:35;98542.22;;;19.78;21.26
31346;BME280;21711;49.708;18.568;2023-02-28T10:06:28;98551.09;;;20.38;20.92
31346;BME280;21711;49.708;18.568;2023-02-28T10:09:02;98539.97;;;18.73;21.28
31346;BME280;21711;49.708;18.568;2023-02-28T10:11:32;98532.78;;;17.63;21.81
31346;BME280;21711;49.708;18.568;2023-02-28T10:14:33;98532.13;;;17.28;23.58
31346;BME280;21711;49.708;18.568;2023-02-28T10:17:32;98539.19;;;18.86;22.98
31346;BME280;21711;49.708;18.568;2023-02-28T10:20:23;98531.25;;;16.24;24.67
31346;BME280;21711;49.708;18.568;2023-02-28T10:26:16;98525.00;;;16.34;26.74
31346;BME280;21711;49.708;18.568;2023-02-28T10:28:44;98522.06;;;17.19;24.79
31346;BME280;21711;49.708;18.568;2023-02-28T10:31:19;98521.22;;;16.70;24.66
31346;BME280;21711;49.708;18.568;2023-02-28T10:33:48;98526.78;;;18.43;24.12
31346;BME280;21711;49.708;18.568;2023-02-28T10:36:23;98525.47;;;17.88;24.26
31346;BME280;21711;49.708;18.568;2023-02-28T10:38:50;98523.72;;;18.36;24.37
31346;BME280;21711;49.708;18.568;2023-02-28T10:41:29;98514.78;;;17.50;23.84
31346;BME280;21711;49.708;18.568;2023-02-28T10:44:23;98506.81;;;16.95;25.23
31346;BME280;21711;49.708;18.568;2023-02-28T10:46:51;98508.75;;;17.39;24.53
31346;BME280;21711;49.708;18.568;2023-02-28T10:49:27;98502.69;;;17.91;23.77
31346;BME280;21711;49.708;18.568;2023-02-28T10:51:59;98500.81;;;17.91;23.87
31346;BME280;21711;49.708;18.568;2023-02-28T10:54:36;98500.53;;;18.45;23.26
31346;BME280;21711;49.708;18.568;2023-02-28T10:57:22;98495.97;;;17.74;24.31
31346;BME280;21711;49.708;18.568;2023-02-28T10:59:53;98491.22;;;16.78;25.83
31346;BME280;21711;49.708;18.568;2023-02-28T11:02:35;98499.94;;;17.77;25.33
31346;BME280;21711;49.708;18.568;2023-02-28T11:05:28;98493.16;;;16.97;24.18
31346;BME280;21711;49.708;18.568;2023-02-28T11:08:17;98497.59;;;17.31;24.93
31346;BME280;21711;49.708;18.568;2023-02-28T11:10:57;98499.53;;;17.69;23.83
31346;BME280;21711;49.708;18.568;2023-02-28T11:13:34;98484.91;;;17.23;24.39
31346;BME280;21711;49.708;18.568;2023-02-28T11:16:11;98497.44;;;19.13;22.97
31346;BME280;21711;49.708;18.568;2023-02-28T11:18:54;98487.41;;;19.05;22.55
31346;BME280;21711;49.708;18.568;2023-02-28T11:21:27;98486.00;;;20.73;21.30
31346;BME280;21711;49.708;18.568;2023-02-28T11:24:40;98479.94;;;19.30;21.65
31346;BME280;21711;49.708;18.568;2023-02-28T11:27:46;98484.03;;;19.64;21.09
31346;BME280;21711;49.708;18.568;2023-02-28T11:30:38;98472.34;;;20.29;21.63
31346;BME280;21711;49.708;18.568;2023-02-28T11:33:29;98469.94;;;20.50;21.15
31346;BME280;21711;49.708;18.568;2023-02-28T11:36:04;98479.50;;;20.10;22.36
31346;BME280;21711;49.708;18.568;2023-02-28T11:38:37;98479.25;;;21.60;20.51
31346;BME280;21711;49.708;18.568;2023-02-28T11:47:10;98480.47;;;19.92;21.90
31346;BME280;21711;49.708;18.568;2023-02-28T12:04:16;98461.81;;;16.29;26.29
31346;BME280;21711;49.708;18.568;2023-02-28T12:06:57;98452.75;;;15.96;25.66
31346;BME280;21711;49.708;18.568;2023-02-28T12:19:13;98442.81;;;15.61;26.48
31346;BME280;21711;49.708;18.568;2023-02-28T12:27:43;98441.03;;;13.35;29.16
31346;BME280;21711;49.708;18.568;2023-02-28T12:30:27;98441.97;;;14.29;29.11
31346;BME280;21711;49.708;18.568;2023-02-28T12:33:08;98437.75;;;13.07;29.37
31346;BME280;21711;49.708;18.568;2023-02-28T12:35:57;98438.44;;;13.45;30.02
31346;BME280;21711;49.708;18.568;2023-02-28T12:38:36;98435.81;;;13.61;29.97
31346;BME280;21711;49.708;18.568;2023-02-28T12:42:01;98430.69;;;13.33;29.80
31346;BME280;21711;49.708;18.568;2023-02-28T12:46:50;98439.81;;;13.68;30.36
31346;BME280;21711;49.708;18.568;2023-02-28T12:51:53;98433.72;;;14.15;29.59
31346;BME280;21711;49.708;18.568;2023-02-28T13:00:20;98425.94;;;12.71;31.00
31346;BME280;21711;49.708;18.568;2023-02-28T13:03:10;98424.81;;;13.21;30.82
31346;BME280;21711;49.708;18.568;2023-02-28T13:09:12;98420.94;;;12.80;31.80
31346;BME280;21711;49.708;18.568;2023-02-28T13:11:54;98421.13;;;12.68;32.42
31346;BME280;21711;49.708;18.568;2023-02-28T13:22:38;98413.00;;;10.32;35.83
31346;BME280;21711;49.708;18.568;2023-02-28T13:28:13;98408.19;;;10.29;36.53
31346;BME280;21711;49.708;18.568;2023-02-28T13:31:04;98399.31;;;9.67;36.26
31346;BME280;21711;49.708;18.568;2023-02-28T13:36:27;98402.31;;;8.59;39.69
31346;BME280;21711;49.708;18.568;2023-02-28T13:47:42;98385.53;;;7.08;46.14
31346;BME280;21711;49.708;18.568;2023-02-28T14:02:01;98374.75;;;5.65;50.17
31346;BME280;21711;49.708;18.568;2023-02-28T14:04:50;98369.56;;;5.59;49.62
31346;BME280;21711;49.708;18.568;2023-02-28T14:07:54;98367.25;;;5.69;51.15
31346;BME280;21711;49.708;18.568;2023-02-28T14:21:09;98367.50;;;4.90;55.59
31346;BME280;21711;49.708;18.568;2023-02-28T14:36:04;98350.28;;;4.55;55.09
31346;BME280;21711;49.708;18.568;2023-02-28T14:38:50;98360.16;;;4.53;56.42
31346;BME280;21711;49.708;18.568;2023-02-28T14:41:32;98361.66;;;4.15;56.22
31346;BME280;21711;49.708;18.568;2023-02-28T14:46:41;98362.44;;;4.22;56.89
31346;BME280;21711;49.708;18.568;2023-02-28T14:49:30;98371.69;;;4.25;56.57
31346;BME280;21711;49.708;18.568;2023-02-28T14:52:20;98366.69;;;3.96;58.06
31346;BME280;21711;49.708;18.568;2023-02-28T14:54:58;98365.88;;;3.89;58.88
31346;BME280;21711;49.708;18.568;2023-02-28T14:57:42;98368.69;;;4.01;59.02
31346;BME280;21711;49.708;18.568;2023-02-28T15:00:27;98371.34;;;3.80;58.05
31346;BME280;21711;49.708;18.568;2023-02-28T15:02:57;98364.25;;;3.47;59.41
31346;BME280;21711;49.708;18.568;2023-02-28T15:05:33;98371.31;;;3.67;58.95
31346;BME280;21711;49.708;18.568;2023-02-28T15:08:15;98365.88;;;3.68;60.02
31346;BME280;21711;49.708;18.568;2023-02-28T15:11:00;98368.28;;;3.63;59.38
31346;BME280;21711;49.708;18.568;2023-02-28T15:16:31;98370.44;;;3.26;62.25
31346;BME280;21711;49.708;18.568;2023-02-28T15:19:35;98364.97;;;3.21;61.90
31346;BME280;21711;49.708;18.568;2023-02-28T15:22:10;98364.19;;;3.20;61.86
31346;BME280;21711;49.708;18.568;2023-02-28T15:24:46;98370.78;;;3.09;62.74
31346;BME280;21711;49.708;18.568;2023-02-28T15:27:25;98368.56;;;3.06;62.66
31346;BME280;21711;49.708;18.568;2023-02-28T15:30:00;98368.88;;;2.83;61.60
31346;BME280;21711;49.708;18.568;2023-02-28T15:32:39;98365.69;;;2.81;62.54
31346;BME280;21711;49.708;18.568;2023-02-28T15:35:30;98366.09;;;2.84;63.51
31346;BME280;21711;49.708;18.568;2023-02-28T15:40:51;98367.22;;;2.68;63.48
31346;BME280;21711;49.708;18.568;2023-02-28T15:43:35;98364.31;;;2.49;64.44
31346;BME280;21711;49.708;18.568;2023-02-28T15:46:12;98369.50;;;2.43;64.53
31346;BME280;21711;49.708;18.568;2023-02-28T15:48:53;98367.25;;;2.40;65.88
31346;BME280;21711;49.708;18.568;2023-02-28T15:51:33;98366.66;;;2.38;65.50
31346;BME280;21711;49.708;18.568;2023-02-28T15:54:30;98367.25;;;2.33;65.56
31346;BME280;21711;49.708;18.568;2023-02-28T15:57:07;98373.34;;;2.18;65.68
31346;BME280;21711;49.708;18.568;2023-02-28T15:59:37;98372.56;;;2.18;67.01
31346;BME280;21711;49.708;18.568;2023-02-28T16:02:17;98371.28;;;2.07;66.55
31346;BME280;21711;49.708;18.568;2023-02-28T16:05:16;98373.53;;;1.88;65.83